sensor_id;sensor_type;location;lat;lon;timestamp;P1;durP1;ratioP1;P2;durP2;ratioP2
17773;SDS011;9011;33.236;-97.118;2023-01-05T00:01:02;9.82;;;1.25;;
17773;SDS011;9011;33.236;-97.118;2023-01-05T00:03:32;7.43;;;1.42;;
17773;SDS011;9011;33.236;-97.118;2023-01-05T00:06:01;0.82;;;0.55;;
17773;SDS011;9011;33.236;-97.118;2023-01-05T00:08:31;1.73;;;0.90;;
17773;SDS011;9011;33.236;-97.118;2023-01-05T00:11:02;4.43;;;1.40;;
17773;SDS011;9011;33.236;-97.118;2023-01-05T00:13:48;4.03;;;0.73;;
17773;SDS011;9011;33.236;-97.118;2023-01-05T00:16:34;1.52;;;0.70;;
17773;SDS011;9011;33.236;-97.118;2023-01-05T00:19:20;4.40;;;0.77;;
17773;SDS011;9011;33.236;-97.118;2023-01-05T00:22:07;23.67;;;3.60;;
17773;SDS011;9011;33.236;-97.118;2023-01-05T00:25:00;21.70;;;2.53;;
17773;SDS011;9011;33.236;-97.118;2023-01-05T00:27:31;3.40;;;1.48;;
17773;SDS011;9011;33.236;-97.118;2023-01-05T00:29:59;2.50;;;1.00;;
17773;SDS011;9011;33.236;-97.118;2023-01-05T00:32:30;2.95;;;0.70;;
17773;SDS011;9011;33.236;-97.118;2023-01-05T00:34:59;4.53;;;1.03;;
17773;SDS011;9011;33.236;-97.118;2023-01-05T00:37:29;12.32;;;1.45;;
17773;SDS011;9011;33.236;-97.118;2023-01-05T00:39:58;3.53;;;0.80;;
17773;SDS011;9011;33.236;-97.118;2023-01-05T00:42:27;1.53;;;0.80;;
17773;SDS011;9011;33.236;-97.118;2023-01-05T00:44:55;1.60;;;0.80;;
17773;SDS011;9011;33.236;-97.118;2023-01-05T00:47:23;1.73;;;0.70;;
17773;SDS011;9011;33.236;-97.118;2023-01-05T00:49:53;3.00;;;1.20;;
17773;SDS011;9011;33.236;-97.118;2023-01-05T00:52:22;3.10;;;0.90;;
17773;SDS011;9011;33.236;-97.118;2023-01-05T00:54:50;1.63;;;0.80;;
17773;SDS011;9011;33.236;-97.118;2023-01-05T00:57:18;1.50;;;0.73;;
17773;SDS011;9011;33.236;-97.118;2023-01-05T00:59:47;2.47;;;1.03;;
17773;SDS011;9011;33.236;-97.118;2023-01-05T01:02:15;3.33;;;0.90;;
17773;SDS011;9011;33.236;-97.118;2023-01-05T01:04:43;10.20;;;1.80;;
17773;SDS011;9011;33.236;-97.118;2023-01-05T01:07:14;3.23;;;1.07;;
17773;SDS011;9011;33.236;-97.118;2023-01-05T01:09:42;2.40;;;0.83;;
17773;SDS011;9011;33.236;-97.118;2023-01-05T01:12:10;1.93;;;1.10;;
17773;SDS011;9011;33.236;-97.118;2023-01-05T01:14:39;1.00;;;0.70;;
17773;SDS011;9011;33.236;-97.118;2023-01-05T01:17:07;2.07;;;0.90;;
17773;SDS011;9011;33.236;-97.118;2023-01-05T01:19:35;3.17;;;0.87;;
17773;SDS011;9011;33.236;-97.118;2023-01-05T01:22:04;2.17;;;0.80;;
17773;SDS011;9011;33.236;-97.118;2023-01-05T01:24:34;1.73;;;1.00;;
17773;SDS011;9011;33.236;-97.118;2023-01-05T01:27:02;2.10;;;0.80;;
17773;SDS011;9011;33.236;-97.118;2023-01-05T01:29:31;3.03;;;0.70;;
17773;SDS011;9011;33.236;-97.118;2023-01-05T01:31:59;2.50;;;0.60;;
17773;SDS011;9011;33.236;-97.118;2023-01-05T01:34:28;0.87;;;0.57;;
17773;SDS011;9011;33.236;-97.118;2023-01-05T01:36:56;4.47;;;1.10;;
17773;SDS011;9011;33.236;-97.118;2023-01-05T01:39:25;19.67;;;2.13;;
17773;SDS011;9011;33.236;-97.118;2023-01-05T01:41:55;29.73;;;3.30;;
17773;SDS011;9011;33.236;-97.118;2023-01-05T01:47:22;9.30;;;1.20;;
17773;SDS011;9011;33.236;-97.118;2023-01-05T01:49:55;11.47;;;1.57;;
17773;SDS011;9011;33.236;-97.118;2023-01-05T01:52:25;4.40;;;1.17;;
17773;SDS011;9011;33.236;-97.118;2023-01-05T01:54:55;6.50;;;0.90;;
17773;SDS011;9011;33.236;-97.118;2023-01-05T01:57:26;4.97;;;1.23;;
17773;SDS011;9011;33.236;-97.118;2023-01-05T01:59:56;2.70;;;0.90;;
17773;SDS011;9011;33.236;-97.118;2023-01-05T02:02:28;1.67;;;0.90;;
17773;SDS011;9011;33.236;-97.118;2023-01-05T02:04:58;1.63;;;1.30;;
17773;SDS011;9011;33.236;-97.118;2023-01-05T02:07:31;4.73;;;0.93;;
17773;SDS011;9011;33.236;-97.118;2023-01-05T02:10:00;3.63;;;1.10;;
17773;SDS011;9011;33.236;-97.118;2023-01-05T02:12:35;4.17;;;1.50;;
17773;SDS011;9011;33.236;-97.118;2023-01-05T02:15:13;2.20;;;1.30;;
17773;SDS011;9011;33.236;-97.118;2023-01-05T02:17:55;4.63;;;1.50;;
17773;SDS011;9011;33.236;-97.118;2023-01-05T02:20:39;3.63;;;1.77;;
17773;SDS011;9011;33.236;-97.118;2023-01-05T02:23:41;7.37;;;2.60;;
17773;SDS011;9011;33.236;-97.118;2023-01-05T02:32:22;5.17;;;1.33;;
17773;SDS011;9011;33.236;-97.118;2023-01-05T02:34:58;10.10;;;1.73;;
17773;SDS011;9011;33.236;-97.118;2023-01-05T02:37:36;2.57;;;0.80;;
17773;SDS011;9011;33.236;-97.118;2023-01-05T02:40:08;3.33;;;1.07;;
17773;SDS011;9011;33.236;-97.118;2023-01-05T02:42:44;1.93;;;0.93;;
17773;SDS011;9011;33.236;-97.118;2023-01-05T02:45:14;2.00;;;0.90;;
17773;SDS011;9011;33.236;-97.118;2023-01-05T02:47:45;2.67;;;1.00;;
17773;SDS011;9011;33.236;-97.118;2023-01-05T02:50:15;2.93;;;0.90;;
17773;SDS011;9011;33.236;-97.118;2023-01-05T02:52:49;4.77;;;1.20;;
17773;SDS011;9011;33.236;-97.118;2023-01-05T02:55:23;4.57;;;1.40;;
17773;SDS011;9011;33.236;-97.118;2023-01-05T02:57:58;14.03;;;2.47;;
17773;SDS011;9011;33.236;-97.118;2023-01-05T03:00:31;1.67;;;1.20;;
17773;SDS011;9011;33.236;-97.118;2023-01-05T03:03:10;3.23;;;1.17;;
17773;SDS011;9011;33.236;-97.118;2023-01-05T03:05:44;3.37;;;1.40;;
17773;SDS011;9011;33.236;-97.118;2023-01-05T03:08:17;2.53;;;1.47;;
17773;SDS011;9011;33.236;-97.118;2023-01-05T03:10:53;4.43;;;1.53;;
17773;SDS011;9011;33.236;-97.118;2023-01-05T03:13:45;5.60;;;1.50;;
17773;SDS011;9011;33.236;-97.118;2023-01-05T03:16:18;5.63;;;1.37;;
17773;SDS011;9011;33.236;-97.118;2023-01-05T03:18:52;4.53;;;1.17;;
17773;SDS011;9011;33.236;-97.118;2023-01-05T03:21:40;2.13;;;1.20;;
17773;SDS011;9011;33.236;-97.118;2023-01-05T03:24:25;2.70;;;1.20;;
17773;SDS011;9011;33.236;-97.118;2023-01-05T03:27:11;3.73;;;1.00;;
17773;SDS011;9011;33.236;-97.118;2023-01-05T03:30:00;3.83;;;1.30;;
17773;SDS011;9011;33.236;-97.118;2023-01-05T03:32:47;4.33;;;1.50;;
17773;SDS011;9011;33.236;-97.118;2023-01-05T03:35:38;2.63;;;1.40;;
17773;SDS011;9011;33.236;-97.118;2023-01-05T03:38:16;4.03;;;2.00;;
17773;SDS011;9011;33.236;-97.118;2023-01-05T03:41:01;5.87;;;2.00;;
17773;SDS011;9011;33.236;-97.118;2023-01-05T03:43:46;4.67;;;1.77;;
17773;SDS011;9011;33.236;-97.118;2023-01-05T03:46:45;4.97;;;2.90;;
17773;SDS011;9011;33.236;-97.118;2023-01-05T03:49:14;7.73;;;2.70;;
17773;SDS011;9011;33.236;-97.118;2023-01-05T03:51:44;5.33;;;2.90;;
17773;SDS011;9011;33.236;-97.118;2023-01-05T03:54:15;12.80;;;3.53;;
17773;SDS011;9011;33.236;-97.118;2023-01-05T03:56:43;9.10;;;3.73;;
17773;SDS011;9011;33.236;-97.118;2023-01-05T03:59:12;10.07;;;3.60;;
17773;SDS011;9011;33.236;-97.118;2023-01-05T04:01:54;7.83;;;4.20;;
17773;SDS011;9011;33.236;-97.118;2023-01-05T04:04:35;7.80;;;3.17;;
17773;SDS011;9011;33.236;-97.118;2023-01-05T04:07:07;4.73;;;2.50;;
17773;SDS011;9011;33.236;-97.118;2023-01-05T04:10:01;5.37;;;2.27;;
17773;SDS011;9011;33.236;-97.118;2023-01-05T04:12:30;5.63;;;1.83;;
17773;SDS011;9011;33.236;-97.118;2023-01-05T04:14:59;4.00;;;1.60;;
17773;SDS011;9011;33.236;-97.118;2023-01-05T04:17:28;3.50;;;1.13;;
17773;SDS011;9011;33.236;-97.118;2023-01-05T04:19:56;2.17;;;1.10;;
17773;SDS011;9011;33.236;-97.118;2023-01-05T04:22:26;3.13;;;1.30;;
17773;SDS011;9011;33.236;-97.118;2023-01-05T04:24:57;3.70;;;1.30;;
17773;SDS011;9011;33.236;-97.118;2023-01-05T04:27:26;6.53;;;1.37;;
17773;SDS011;9011;33.236;-97.118;2023-01-05T04:29:54;2.63;;;1.17;;
17773;SDS011;9011;33.236;-97.118;2023-01-05T04:32:26;2.40;;;1.20;;
17773;SDS011;9011;33.236;-97.118;2023-01-05T04:34:55;5.00;;;1.20;;
17773;SDS011;9011;33.236;-97.118;2023-01-05T04:37:23;2.57;;;1.00;;
17773;SDS011;9011;33.236;-97.118;2023-01-05T04:39:53;2.40;;;1.40;;
17773;SDS011;9011;33.236;-97.118;2023-01-05T04:42:22;5.90;;;1.00;;
17773;SDS011;9011;33.236;-97.118;2023-01-05T04:44:50;3.03;;;0.90;;
17773;SDS011;9011;33.236;-97.118;2023-01-05T04:47:21;2.13;;;1.10;;
17773;SDS011;9011;33.236;-97.118;2023-01-05T04:49:49;2.10;;;0.77;;
17773;SDS011;9011;33.236;-97.118;2023-01-05T04:52:18;2.17;;;0.80;;
17773;SDS011;9011;33.236;-97.118;2023-01-05T04:54:46;2.53;;;0.70;;
17773;SDS011;9011;33.236;-97.118;2023-01-05T04:57:16;3.10;;;1.00;;
17773;SDS011;9011;33.236;-97.118;2023-01-05T04:59:45;2.70;;;0.90;;
17773;SDS011;9011;33.236;-97.118;2023-01-05T05:02:13;1.97;;;0.90;;
17773;SDS011;9011;33.236;-97.118;2023-01-05T05:04:41;0.93;;;0.80;;
17773;SDS011;9011;33.236;-97.118;2023-01-05T05:07:10;2.43;;;0.87;;
17773;SDS011;9011;33.236;-97.118;2023-01-05T05:09:38;1.07;;;0.70;;
17773;SDS011;9011;33.236;-97.118;2023-01-05T05:12:07;1.73;;;0.80;;
17773;SDS011;9011;33.236;-97.118;2023-01-05T05:14:37;1.83;;;0.97;;
17773;SDS011;9011;33.236;-97.118;2023-01-05T05:17:06;3.63;;;0.90;;
17773;SDS011;9011;33.236;-97.118;2023-01-05T05:19:34;0.83;;;0.70;;
17773;SDS011;9011;33.236;-97.118;2023-01-05T05:22:02;1.93;;;0.93;;
17773;SDS011;9011;33.236;-97.118;2023-01-05T05:24:31;0.60;;;0.60;;
17773;SDS011;9011;33.236;-97.118;2023-01-05T05:26:59;0.70;;;0.60;;
17773;SDS011;9011;33.236;-97.118;2023-01-05T05:29:28;2.63;;;0.80;;
17773;SDS011;9011;33.236;-97.118;2023-01-05T05:31:57;1.23;;;1.00;;
17773;SDS011;9011;33.236;-97.118;2023-01-05T05:34:26;0.97;;;0.70;;
17773;SDS011;9011;33.236;-97.118;2023-01-05T05:36:56;0.70;;;0.67;;
17773;SDS011;9011;33.236;-97.118;2023-01-05T05:39:24;2.13;;;0.73;;
17773;SDS011;9011;33.236;-97.118;2023-01-05T05:41:53;3.20;;;0.80;;
17773;SDS011;9011;33.236;-97.118;2023-01-05T05:44:21;2.30;;;0.73;;
17773;SDS011;9011;33.236;-97.118;2023-01-05T05:46:49;2.17;;;0.67;;
17773;SDS011;9011;33.236;-97.118;2023-01-05T05:49:19;4.57;;;0.70;;
17773;SDS011;9011;33.236;-97.118;2023-01-05T05:51:48;2.43;;;0.60;;
17773;SDS011;9011;33.236;-97.118;2023-01-05T05:54:16;2.27;;;0.60;;
17773;SDS011;9011;33.236;-97.118;2023-01-05T05:56:45;0.97;;;0.57;;
17773;SDS011;9011;33.236;-97.118;2023-01-05T05:59:13;0.80;;;0.60;;
17773;SDS011;9011;33.236;-97.118;2023-01-05T06:01:42;1.43;;;0.73;;
17773;SDS011;9011;33.236;-97.118;2023-01-05T06:04:10;0.60;;;0.60;;
17773;SDS011;9011;33.236;-97.118;2023-01-05T06:06:40;0.57;;;0.47;;
17773;SDS011;9011;33.236;-97.118;2023-01-05T06:09:08;0.87;;;0.60;;
17773;SDS011;9011;33.236;-97.118;2023-01-05T06:11:37;0.80;;;0.60;;
17773;SDS011;9011;33.236;-97.118;2023-01-05T06:14:05;1.50;;;1.03;;
17773;SDS011;9011;33.236;-97.118;2023-01-05T06:16:34;1.37;;;0.67;;
17773;SDS011;9011;33.236;-97.118;2023-01-05T06:19:02;2.73;;;0.70;;
17773;SDS011;9011;33.236;-97.118;2023-01-05T06:21:30;0.60;;;0.60;;
17773;SDS011;9011;33.236;-97.118;2023-01-05T06:24:00;2.63;;;0.70;;
17773;SDS011;9011;33.236;-97.118;2023-01-05T06:26:29;0.80;;;0.57;;
17773;SDS011;9011;33.236;-97.118;2023-01-05T06:28:57;0.87;;;0.60;;
17773;SDS011;9011;33.236;-97.118;2023-01-05T06:31:25;2.30;;;0.70;;
17773;SDS011;9011;33.236;-97.118;2023-01-05T06:33:54;2.80;;;0.73;;
17773;SDS011;9011;33.236;-97.118;2023-01-05T06:36:22;0.40;;;0.40;;
17773;SDS011;9011;33.236;-97.118;2023-01-05T06:38:50;0.50;;;0.40;;
17773;SDS011;9011;33.236;-97.118;2023-01-05T06:41:20;1.83;;;0.60;;
17773;SDS011;9011;33.236;-97.118;2023-01-05T06:43:49;1.03;;;0.60;;
17773;SDS011;9011;33.236;-97.118;2023-01-05T06:46:17;1.20;;;0.70;;
17773;SDS011;9011;33.236;-97.118;2023-01-05T06:48:45;1.30;;;0.50;;
17773;SDS011;9011;33.236;-97.118;2023-01-05T06:51:15;3.87;;;0.60;;
17773;SDS011;9011;33.236;-97.118;2023-01-05T06:53:44;1.77;;;0.90;;
17773;SDS011;9011;33.236;-97.118;2023-01-05T06:56:12;0.37;;;0.37;;
17773;SDS011;9011;33.236;-97.118;2023-01-05T06:58:42;1.50;;;0.67;;
17773;SDS011;9011;33.236;-97.118;2023-01-05T07:01:11;1.63;;;0.80;;
17773;SDS011;9011;33.236;-97.118;2023-01-05T07:03:39;3.53;;;0.80;;
17773;SDS011;9011;33.236;-97.118;2023-01-05T07:06:07;2.20;;;0.90;;
17773;SDS011;9011;33.236;-97.118;2023-01-05T07:08:38;1.00;;;0.50;;
17773;SDS011;9011;33.236;-97.118;2023-01-05T07:11:06;1.23;;;0.60;;
17773;SDS011;9011;33.236;-97.118;2023-01-05T07:13:35;0.93;;;0.80;;
17773;SDS011;9011;33.236;-97.118;2023-01-05T07:16:05;2.37;;;1.13;;
17773;SDS011;9011;33.236;-97.118;2023-01-05T07:18:34;0.77;;;0.70;;
17773;SDS011;9011;33.236;-97.118;2023-01-05T07:21:02;2.00;;;0.77;;
17773;SDS011;9011;33.236;-97.118;2023-01-05T07:23:30;2.03;;;0.80;;
17773;SDS011;9011;33.236;-97.118;2023-01-05T07:26:02;1.43;;;0.90;;
17773;SDS011;9011;33.236;-97.118;2023-01-05T07:28:30;0.50;;;0.50;;
17773;SDS011;9011;33.236;-97.118;2023-01-05T07:30:59;0.80;;;0.60;;
17773;SDS011;9011;33.236;-97.118;2023-01-05T07:33:29;1.50;;;0.73;;
17773;SDS011;9011;33.236;-97.118;2023-01-05T07:35:59;1.53;;;0.70;;
17773;SDS011;9011;33.236;-97.118;2023-01-05T07:38:27;0.70;;;0.63;;
17773;SDS011;9011;33.236;-97.118;2023-01-05T07:40:57;0.60;;;0.60;;
17773;SDS011;9011;33.236;-97.118;2023-01-05T07:43:28;1.27;;;0.90;;
17773;SDS011;9011;33.236;-97.118;2023-01-05T07:45:57;1.60;;;0.90;;
17773;SDS011;9011;33.236;-97.118;2023-01-05T07:48:25;1.00;;;0.70;;
17773;SDS011;9011;33.236;-97.118;2023-01-05T07:50:59;0.80;;;0.80;;
17773;SDS011;9011;33.236;-97.118;2023-01-05T07:53:29;0.70;;;0.70;;
17773;SDS011;9011;33.236;-97.118;2023-01-05T07:55:59;0.70;;;0.60;;
17773;SDS011;9011;33.236;-97.118;2023-01-05T07:58:28;1.00;;;0.90;;
17773;SDS011;9011;33.236;-97.118;2023-01-05T08:00:56;1.07;;;0.80;;
17773;SDS011;9011;33.236;-97.118;2023-01-05T08:03:29;1.93;;;0.97;;
17773;SDS011;9011;33.236;-97.118;2023-01-05T08:06:01;1.20;;;0.87;;
17773;SDS011;9011;33.236;-97.118;2023-01-05T08:08:31;3.03;;;1.07;;
17773;SDS011;9011;33.236;-97.118;2023-01-05T08:10:59;1.60;;;0.90;;
17773;SDS011;9011;33.236;-97.118;2023-01-05T08:13:30;1.20;;;1.10;;
17773;SDS011;9011;33.236;-97.118;2023-01-05T08:16:18;1.13;;;1.03;;
17773;SDS011;9011;33.236;-97.118;2023-01-05T08:18:46;1.07;;;0.70;;
17773;SDS011;9011;33.236;-97.118;2023-01-05T08:21:18;1.00;;;0.90;;
17773;SDS011;9011;33.236;-97.118;2023-01-05T08:23:47;3.40;;;0.80;;
17773;SDS011;9011;33.236;-97.118;2023-01-05T08:26:18;2.37;;;1.20;;
17773;SDS011;9011;33.236;-97.118;2023-01-05T08:28:48;1.10;;;0.80;;
17773;SDS011;9011;33.236;-97.118;2023-01-05T08:31:17;2.57;;;1.00;;
17773;SDS011;9011;33.236;-97.118;2023-01-05T08:33:47;1.17;;;1.00;;
17773;SDS011;9011;33.236;-97.118;2023-01-05T08:36:18;0.93;;;0.70;;
17773;SDS011;9011;33.236;-97.118;2023-01-05T08:38:47;1.47;;;1.10;;
17773;SDS011;9011;33.236;-97.118;2023-01-05T08:41:20;2.63;;;1.20;;
17773;SDS011;9011;33.236;-97.118;2023-01-05T08:43:50;2.00;;;1.10;;
17773;SDS011;9011;33.236;-97.118;2023-01-05T08:46:23;1.13;;;0.90;;
17773;SDS011;9011;33.236;-97.118;2023-01-05T08:48:53;1.00;;;0.77;;
17773;SDS011;9011;33.236;-97.118;2023-01-05T08:51:24;1.70;;;0.93;;
17773;SDS011;9011;33.236;-97.118;2023-01-05T08:53:53;1.73;;;0.90;;
17773;SDS011;9011;33.236;-97.118;2023-01-05T08:56:22;1.67;;;0.80;;
17773;SDS011;9011;33.236;-97.118;2023-01-05T08:58:52;1.00;;;0.80;;
17773;SDS011;9011;33.236;-97.118;2023-01-05T09:01:23;0.83;;;0.83;;
17773;SDS011;9011;33.236;-97.118;2023-01-05T09:03:52;1.23;;;0.90;;
17773;SDS011;9011;33.236;-97.118;2023-01-05T09:06:20;0.80;;;0.80;;
17773;SDS011;9011;33.236;-97.118;2023-01-05T09:08:50;1.33;;;0.73;;
17773;SDS011;9011;33.236;-97.118;2023-01-05T09:11:20;3.07;;;0.90;;
17773;SDS011;9011;33.236;-97.118;2023-01-05T09:13:50;1.20;;;0.80;;
17773;SDS011;9011;33.236;-97.118;2023-01-05T09:16:22;3.07;;;0.93;;
17773;SDS011;9011;33.236;-97.118;2023-01-05T09:18:52;1.67;;;1.10;;
17773;SDS011;9011;33.236;-97.118;2023-01-05T09:21:21;0.93;;;0.83;;
17773;SDS011;9011;33.236;-97.118;2023-01-05T09:23:53;1.40;;;1.10;;
17773;SDS011;9011;33.236;-97.118;2023-01-05T09:26:21;1.53;;;1.00;;
17773;SDS011;9011;33.236;-97.118;2023-01-05T09:28:50;1.07;;;0.90;;
17773;SDS011;9011;33.236;-97.118;2023-01-05T09:31:20;1.87;;;0.90;;
17773;SDS011;9011;33.236;-97.118;2023-01-05T09:33:49;1.97;;;1.10;;
17773;SDS011;9011;33.236;-97.118;2023-01-05T09:36:17;1.07;;;0.93;;
17773;SDS011;9011;33.236;-97.118;2023-01-05T09:38:47;1.97;;;1.30;;
17773;SDS011;9011;33.236;-97.118;2023-01-05T09:41:20;4.00;;;1.00;;
17773;SDS011;9011;33.236;-97.118;2023-01-05T09:43:52;2.47;;;0.90;;
17773;SDS011;9011;33.236;-97.118;2023-01-05T09:46:24;0.63;;;0.60;;
17773;SDS011;9011;33.236;-97.118;2023-01-05T09:48:56;1.50;;;0.93;;
17773;SDS011;9011;33.236;-97.118;2023-01-05T09:51:27;1.30;;;0.77;;
17773;SDS011;9011;33.236;-97.118;2023-01-05T09:53:56;1.13;;;1.00;;
17773;SDS011;9011;33.236;-97.118;2023-01-05T09:56:28;1.00;;;0.90;;
17773;SDS011;9011;33.236;-97.118;2023-01-05T09:59:01;0.83;;;0.70;;
17773;SDS011;9011;33.236;-97.118;2023-01-05T10:01:32;1.77;;;0.70;;
17773;SDS011;9011;33.236;-97.118;2023-01-05T10:04:03;1.07;;;0.90;;
17773;SDS011;9011;33.236;-97.118;2023-01-05T10:06:34;1.10;;;0.80;;
17773;SDS011;9011;33.236;-97.118;2023-01-05T10:09:06;1.27;;;0.90;;
17773;SDS011;9011;33.236;-97.118;2023-01-05T10:11:43;1.23;;;1.00;;
17773;SDS011;9011;33.236;-97.118;2023-01-05T10:14:36;2.30;;;0.90;;
17773;SDS011;9011;33.236;-97.118;2023-01-05T10:17:11;2.30;;;1.00;;
17773;SDS011;9011;33.236;-97.118;2023-01-05T10:19:40;1.67;;;0.77;;
17773;SDS011;9011;33.236;-97.118;2023-01-05T10:22:17;0.63;;;0.60;;
17773;SDS011;9011;33.236;-97.118;2023-01-05T10:24:58;1.13;;;0.70;;
17773;SDS011;9011;33.236;-97.118;2023-01-05T10:27:34;0.90;;;0.80;;
17773;SDS011;9011;33.236;-97.118;2023-01-05T10:30:12;1.77;;;0.83;;
17773;SDS011;9011;33.236;-97.118;2023-01-05T10:32:48;1.70;;;0.90;;
17773;SDS011;9011;33.236;-97.118;2023-01-05T10:35:40;1.80;;;0.60;;
17773;SDS011;9011;33.236;-97.118;2023-01-05T10:38:24;1.00;;;0.90;;
17773;SDS011;9011;33.236;-97.118;2023-01-05T10:41:03;1.07;;;0.70;;
17773;SDS011;9011;33.236;-97.118;2023-01-05T10:43:48;3.07;;;0.70;;
17773;SDS011;9011;33.236;-97.118;2023-01-05T10:46:23;1.20;;;0.80;;
17773;SDS011;9011;33.236;-97.118;2023-01-05T10:48:52;1.30;;;0.83;;
17773;SDS011;9011;33.236;-97.118;2023-01-05T10:51:20;2.07;;;0.80;;
17773;SDS011;9011;33.236;-97.118;2023-01-05T10:53:49;1.40;;;0.87;;
17773;SDS011;9011;33.236;-97.118;2023-01-05T10:56:21;1.40;;;0.80;;
17773;SDS011;9011;33.236;-97.118;2023-01-05T10:59:06;1.50;;;0.77;;
17773;SDS011;9011;33.236;-97.118;2023-01-05T11:01:35;1.70;;;1.20;;
17773;SDS011;9011;33.236;-97.118;2023-01-05T11:04:11;1.20;;;1.03;;
17773;SDS011;9011;33.236;-97.118;2023-01-05T11:06:43;2.57;;;0.70;;
17773;SDS011;9011;33.236;-97.118;2023-01-05T11:09:15;1.70;;;0.87;;
17773;SDS011;9011;33.236;-97.118;2023-01-05T11:11:51;1.43;;;0.83;;
17773;SDS011;9011;33.236;-97.118;2023-01-05T11:14:22;1.27;;;0.90;;
17773;SDS011;9011;33.236;-97.118;2023-01-05T11:16:53;1.00;;;0.70;;
17773;SDS011;9011;33.236;-97.118;2023-01-05T11:19:29;1.20;;;0.80;;
17773;SDS011;9011;33.236;-97.118;2023-01-05T11:22:01;1.27;;;0.90;;
17773;SDS011;9011;33.236;-97.118;2023-01-05T11:24:30;0.93;;;0.60;;
17773;SDS011;9011;33.236;-97.118;2023-01-05T11:27:00;1.47;;;0.77;;
17773;SDS011;9011;33.236;-97.118;2023-01-05T11:29:31;1.97;;;0.67;;
17773;SDS011;9011;33.236;-97.118;2023-01-05T11:32:00;1.80;;;1.00;;
17773;SDS011;9011;33.236;-97.118;2023-01-05T11:34:32;1.43;;;1.10;;
17773;SDS011;9011;33.236;-97.118;2023-01-05T11:37:12;1.73;;;0.87;;
17773;SDS011;9011;33.236;-97.118;2023-01-05T11:39:49;2.63;;;1.03;;
17773;SDS011;9011;33.236;-97.118;2023-01-05T11:42:19;1.53;;;0.80;;
17773;SDS011;9011;33.236;-97.118;2023-01-05T11:44:58;4.33;;;0.80;;
17773;SDS011;9011;33.236;-97.118;2023-01-05T11:47:30;1.37;;;0.60;;
17773;SDS011;9011;33.236;-97.118;2023-01-05T11:50:04;1.20;;;1.10;;
17773;SDS011;9011;33.236;-97.118;2023-01-05T11:52:43;1.80;;;0.93;;
17773;SDS011;9011;33.236;-97.118;2023-01-05T11:55:26;1.10;;;0.70;;
17773;SDS011;9011;33.236;-97.118;2023-01-05T11:58:13;1.20;;;1.00;;
17773;SDS011;9011;33.236;-97.118;2023-01-05T12:03:58;2.73;;;1.10;;
17773;SDS011;9011;33.236;-97.118;2023-01-05T12:06:34;1.63;;;1.20;;
17773;SDS011;9011;33.236;-97.118;2023-01-05T12:09:16;3.43;;;1.00;;
17773;SDS011;9011;33.236;-97.118;2023-01-05T12:11:51;1.73;;;0.60;;
17773;SDS011;9011;33.236;-97.118;2023-01-05T12:14:33;1.33;;;0.77;;
17773;SDS011;9011;33.236;-97.118;2023-01-05T12:17:14;1.07;;;0.83;;
17773;SDS011;9011;33.236;-97.118;2023-01-05T12:19:55;3.57;;;0.90;;
17773;SDS011;9011;33.236;-97.118;2023-01-05T12:22:36;2.93;;;1.07;;
17773;SDS011;9011;33.236;-97.118;2023-01-05T12:25:24;3.70;;;0.80;;
17773;SDS011;9011;33.236;-97.118;2023-01-05T12:28:15;1.10;;;0.80;;
17773;SDS011;9011;33.236;-97.118;2023-01-05T12:30:57;1.33;;;0.90;;
17773;SDS011;9011;33.236;-97.118;2023-01-05T12:33:38;1.70;;;1.13;;
17773;SDS011;9011;33.236;-97.118;2023-01-05T12:36:29;2.73;;;1.03;;
17773;SDS011;9011;33.236;-97.118;2023-01-05T12:39:14;13.23;;;2.10;;
17773;SDS011;9011;33.236;-97.118;2023-01-05T12:42:12;21.27;;;2.83;;
17773;SDS011;9011;33.236;-97.118;2023-01-05T12:45:06;1.57;;;0.97;;
17773;SDS011;9011;33.236;-97.118;2023-01-05T12:47:53;2.50;;;0.87;;
17773;SDS011;9011;33.236;-97.118;2023-01-05T12:50:28;13.37;;;2.50;;
17773;SDS011;9011;33.236;-97.118;2023-01-05T12:53:04;7.57;;;1.20;;
17773;SDS011;9011;33.236;-97.118;2023-01-05T12:55:41;7.13;;;1.57;;
17773;SDS011;9011;33.236;-97.118;2023-01-05T12:58:14;1.93;;;0.97;;
17773;SDS011;9011;33.236;-97.118;2023-01-05T13:00:49;2.50;;;1.10;;
17773;SDS011;9011;33.236;-97.118;2023-01-05T13:03:19;0.63;;;0.63;;
17773;SDS011;9011;33.236;-97.118;2023-01-05T13:05:56;2.20;;;1.23;;
17773;SDS011;9011;33.236;-97.118;2023-01-05T13:08:31;1.40;;;1.10;;
17773;SDS011;9011;33.236;-97.118;2023-01-05T13:11:06;1.97;;;1.37;;
17773;SDS011;9011;33.236;-97.118;2023-01-05T13:13:40;1.90;;;1.23;;
17773;SDS011;9011;33.236;-97.118;2023-01-05T13:16:12;2.97;;;1.33;;
17773;SDS011;9011;33.236;-97.118;2023-01-05T13:18:46;1.97;;;1.10;;
17773;SDS011;9011;33.236;-97.118;2023-01-05T13:21:21;4.03;;;1.37;;
17773;SDS011;9011;33.236;-97.118;2023-01-05T13:23:53;9.83;;;2.10;;
17773;SDS011;9011;33.236;-97.118;2023-01-05T13:26:24;8.17;;;1.40;;
17773;SDS011;9011;33.236;-97.118;2023-01-05T13:28:54;3.33;;;1.73;;
17773;SDS011;9011;33.236;-97.118;2023-01-05T13:31:31;2.20;;;1.40;;
17773;SDS011;9011;33.236;-97.118;2023-01-05T13:37:18;3.70;;;1.50;;
17773;SDS011;9011;33.236;-97.118;2023-01-05T13:46:41;3.37;;;1.37;;
17773;SDS011;9011;33.236;-97.118;2023-01-05T13:52:35;2.23;;;1.20;;
17773;SDS011;9011;33.236;-97.118;2023-01-05T13:55:16;1.10;;;1.00;;
17773;SDS011;9011;33.236;-97.118;2023-01-05T13:57:46;3.20;;;1.77;;
17773;SDS011;9011;33.236;-97.118;2023-01-05T14:00:19;2.33;;;1.43;;
17773;SDS011;9011;33.236;-97.118;2023-01-05T14:03:00;1.73;;;1.20;;
17773;SDS011;9011;33.236;-97.118;2023-01-05T14:05:35;5.90;;;1.80;;
17773;SDS011;9011;33.236;-97.118;2023-01-05T14:08:16;4.60;;;1.40;;
17773;SDS011;9011;33.236;-97.118;2023-01-05T14:13:40;1.20;;;0.97;;
17773;SDS011;9011;33.236;-97.118;2023-01-05T14:19:21;4.80;;;1.70;;
17773;SDS011;9011;33.236;-97.118;2023-01-05T14:22:22;5.00;;;1.27;;
17773;SDS011;9011;33.236;-97.118;2023-01-05T14:28:22;3.07;;;1.47;;
17773;SDS011;9011;33.236;-97.118;2023-01-05T14:34:13;1.93;;;1.37;;
17773;SDS011;9011;33.236;-97.118;2023-01-05T14:36:43;7.87;;;1.50;;
17773;SDS011;9011;33.236;-97.118;2023-01-05T14:39:25;3.90;;;1.07;;
17773;SDS011;9011;33.236;-97.118;2023-01-05T14:41:58;1.73;;;1.10;;
17773;SDS011;9011;33.236;-97.118;2023-01-05T14:44:32;2.17;;;0.90;;
17773;SDS011;9011;33.236;-97.118;2023-01-05T14:47:06;3.40;;;1.10;;
17773;SDS011;9011;33.236;-97.118;2023-01-05T14:49:37;4.07;;;1.30;;
17773;SDS011;9011;33.236;-97.118;2023-01-05T14:52:14;2.00;;;1.30;;
17773;SDS011;9011;33.236;-97.118;2023-01-05T14:57:48;1.13;;;1.03;;
17773;SDS011;9011;33.236;-97.118;2023-01-05T15:00:20;5.20;;;1.10;;
17773;SDS011;9011;33.236;-97.118;2023-01-05T15:02:59;3.10;;;1.50;;
17773;SDS011;9011;33.236;-97.118;2023-01-05T15:05:35;1.30;;;1.20;;
17773;SDS011;9011;33.236;-97.118;2023-01-05T15:08:13;1.73;;;1.27;;
17773;SDS011;9011;33.236;-97.118;2023-01-05T15:11:06;4.47;;;1.50;;
17773;SDS011;9011;33.236;-97.118;2023-01-05T15:17:18;2.30;;;0.90;;
17773;SDS011;9011;33.236;-97.118;2023-01-05T15:23:17;2.23;;;1.10;;
17773;SDS011;9011;33.236;-97.118;2023-01-05T15:26:15;2.07;;;1.03;;
17773;SDS011;9011;33.236;-97.118;2023-01-05T15:29:03;3.33;;;1.60;;
17773;SDS011;9011;33.236;-97.118;2023-01-05T15:31:52;3.60;;;1.17;;
17773;SDS011;9011;33.236;-97.118;2023-01-05T15:34:28;2.17;;;1.30;;
17773;SDS011;9011;33.236;-97.118;2023-01-05T15:37:10;4.90;;;1.43;;
17773;SDS011;9011;33.236;-97.118;2023-01-05T15:39:45;2.80;;;1.30;;
17773;SDS011;9011;33.236;-97.118;2023-01-05T15:42:15;3.73;;;1.57;;
17773;SDS011;9011;33.236;-97.118;2023-01-05T15:44:46;1.93;;;1.07;;
17773;SDS011;9011;33.236;-97.118;2023-01-05T15:47:17;2.80;;;1.50;;
17773;SDS011;9011;33.236;-97.118;2023-01-05T15:52:22;1.60;;;1.50;;
17773;SDS011;9011;33.236;-97.118;2023-01-05T15:54:57;2.00;;;1.37;;
17773;SDS011;9011;33.236;-97.118;2023-01-05T15:57:27;1.63;;;1.37;;
17773;SDS011;9011;33.236;-97.118;2023-01-05T15:59:56;1.30;;;1.07;;